Time;durP1;ratioP1;P1;durP2;ratioP2;P2;SDS_P1;SDS_P2;PMS_P1;PMS_P2;Temp;Humidity;BMP_temperature;BMP_pressure;BME280_temperature;BME280_humidity;BME280_pressure;Samples;Min_cycle;Max_cycle;Signal;HPM_P1;HPM_P2
2022/06/13 00:01:12;;;;;;;3.75;2.17;;;20.90;50.40;;;;;;5074942;28;20029;-77
2022/06/13 00:03:39;;;;;;;6.78;1.75;;;20.90;50.60;;;;;;5044140;28;20040;-77
2022/06/13 00:06:05;;;;;;;3.13;2.03;;;20.80;50.60;;;;;;5071648;28;20029;-77
2022/06/13 00:08:31;;;;;;;3.03;2.17;;;20.80;50.50;;;;;;5045610;28;20041;-77
2022/06/13 00:10:57;;;;;;;3.28;2.40;;;20.80;50.50;;;;;;5072871;28;20163;-78
2022/06/13 00:13:23;;;;;;;5.15;2.20;;;20.70;50.70;;;;;;5074376;28;20495;-77
2022/06/13 00:15:49;;;;;;;6.45;2.05;;;20.70;50.70;;;;;;5073133;28;20234;-77
2022/06/13 00:18:14;;;;;;;5.18;2.50;;;20.70;50.80;;;;;;5056332;28;20024;-77
2022/06/13 00:20:40;;;;;;;4.03;2.03;;;20.70;50.80;;;;;;5056298;28;20116;-77
2022/06/13 00:23:06;;;;;;;3.75;2.30;;;20.60;50.80;;;;;;5054338;28;20037;-77
2022/06/13 00:25:32;;;;;;;3.20;2.20;;;20.60;50.80;;;;;;5065981;28;20028;-77
2022/06/13 00:27:58;;;;;;;4.78;2.53;;;20.60;51.00;;;;;;5067963;28;20028;-77
2022/06/13 00:30:24;;;;;;;5.25;2.63;;;20.60;51.00;;;;;;5073517;28;20032;-77
2022/06/13 00:32:50;;;;;;;3.67;2.55;;;20.60;51.50;;;;;;5035899;28;20124;-77
2022/06/13 00:35:17;;;;;;;3.40;2.28;;;20.50;51.40;;;;;;5053546;28;20104;-77
2022/06/13 00:37:42;;;;;;;3.92;2.38;;;20.50;51.40;;;;;;5053664;28;20025;-77
2022/06/13 00:40:09;;;;;;;3.22;2.35;;;20.50;51.50;;;;;;5070264;28;20081;-77
2022/06/13 00:42:36;;;;;;;3.75;2.63;;;20.50;51.50;;;;;;5036141;28;20029;-77
2022/06/13 00:45:14;;;;;;;3.38;2.03;;;20.50;51.60;;;;;;5070382;28;20036;-77
2022/06/13 00:47:43;;;;;;;3.20;2.03;;;20.40;51.70;;;;;;5073668;28;20384;-77
2022/06/13 00:50:14;;;;;;;5.55;2.50;;;20.50;51.70;;;;;;5073190;28;20100;-77
2022/06/13 00:53:04;;;;;;;4.95;2.70;;;20.40;51.90;;;;;;5055688;28;20035;-77
2022/06/13 00:55:43;;;;;;;2.92;2.20;;;20.40;52.10;;;;;;5073338;28;20056;-78
2022/06/13 00:58:11;;;;;;;4.60;2.45;;;20.30;52.20;;;;;;5073237;28;20020;-77
2022/06/13 01:00:38;;;;;;;4.43;2.90;;;20.30;52.60;;;;;;5055426;28;20052;-78
2022/06/13 01:03:05;;;;;;;7.97;2.72;;;20.30;53.30;;;;;;5064797;28;20465;-78
2022/06/13 01:05:35;;;;;;;9.63;2.83;;;20.30;52.80;;;;;;5061098;28;20044;-78
2022/06/13 01:08:04;;;;;;;6.32;2.70;;;20.30;53.00;;;;;;5073503;28;20028;-77
2022/06/13 01:13:16;;;;;;;3.95;2.45;;;20.20;53.00;;;;;;5070672;28;20420;-77
2022/06/13 01:16:06;;;;;;;6.60;2.90;;;20.30;53.00;;;;;;5043809;28;20150;-77
2022/06/13 01:19:22;;;;;;;3.40;2.70;;;20.30;53.30;;;;;;5073121;28;20016;-77
2022/06/13 01:22:15;;;;;;;7.85;3.00;;;20.20;52.90;;;;;;5053205;28;20031;-77
2022/06/13 01:25:13;;;;;;;5.60;3.08;;;20.30;53.30;;;;;;5072535;28;20115;-78
2022/06/13 01:27:51;;;;;;;5.70;2.92;;;20.30;53.30;;;;;;5072973;28;20342;-78
2022/06/13 01:30:35;;;;;;;4.38;2.40;;;20.30;53.40;;;;;;5054798;28;20028;-77
2022/06/13 01:33:18;;;;;;;6.13;3.00;;;20.30;53.60;;;;;;5072884;28;20056;-77
2022/06/13 01:36:31;;;;;;;5.57;2.83;;;20.40;54.00;;;;;;5072698;28;20036;-77
2022/06/13 01:39:26;;;;;;;3.75;2.45;;;20.40;53.60;;;;;;4990800;28;20030;-77
2022/06/13 01:42:19;;;;;;;4.32;2.80;;;20.50;53.70;;;;;;4924693;28;20405;-77
2022/06/13 01:45:12;;;;;;;7.15;2.95;;;20.50;53.80;;;;;;5028984;28;20555;-77
2022/06/13 01:47:49;;;;;;;5.07;2.95;;;20.60;54.10;;;;;;5066874;28;20021;-77
2022/06/13 01:50:44;;;;;;;4.90;2.80;;;20.60;54.00;;;;;;5054751;28;20031;-78
2022/06/13 01:53:36;;;;;;;4.18;2.85;;;20.70;54.30;;;;;;5054733;28;20024;-77
2022/06/13 01:56:13;;;;;;;3.55;2.65;;;20.80;53.80;;;;;;5054668;28;20083;-77
2022/06/13 01:58:46;;;;;;;5.70;2.67;;;20.80;53.80;;;;;;5052296;28;20036;-77
2022/06/13 02:01:34;;;;;;;5.78;2.65;;;20.80;53.80;;;;;;5072141;28;20503;-77
2022/06/13 02:04:15;;;;;;;8.30;3.15;;;20.90;53.70;;;;;;5054081;28;20063;-77
2022/06/13 02:06:47;;;;;;;3.90;2.83;;;20.90;53.60;;;;;;5072886;28;20027;-77
2022/06/13 02:09:27;;;;;;;6.03;2.83;;;20.90;53.60;;;;;;5054666;28;20107;-77
2022/06/13 02:11:55;;;;;;;7.28;2.85;;;21.00;53.70;;;;;;5054476;28;20181;-77
2022/06/13 02:14:42;;;;;;;7.28;2.92;;;21.00;53.60;;;;;;5054539;28;20491;-77
2022/06/13 02:17:23;;;;;;;16.30;3.20;;;20.90;53.80;;;;;;5071301;28;20520;-78
2022/06/13 02:20:00;;;;;;;3.20;2.50;;;21.00;53.70;;;;;;5054559;28;20025;-77
2022/06/13 02:22:28;;;;;;;6.57;3.45;;;21.00;53.40;;;;;;5054467;28;20430;-78
2022/06/13 02:25:03;;;;;;;5.63;3.00;;;21.00;54.20;;;;;;5054643;28;20028;-77
2022/06/13 02:27:35;;;;;;;4.82;3.08;;;21.10;54.40;;;;;;5054631;28;20361;-77
2022/06/13 02:30:09;;;;;;;4.95;3.10;;;21.10;54.20;;;;;;5072897;28;20024;-77
2022/06/13 02:32:47;;;;;;;13.87;3.30;;;21.10;54.20;;;;;;5058266;28;20024;-76
2022/06/13 02:35:36;;;;;;;5.70;2.92;;;21.10;54.70;;;;;;5056523;28;20393;-77
2022/06/13 02:38:21;;;;;;;9.23;3.20;;;21.10;54.80;;;;;;5064701;28;20032;-77
2022/06/13 02:40:53;;;;;;;4.35;3.08;;;21.10;54.60;;;;;;5064721;28;20054;-77
2022/06/13 02:43:31;;;;;;;4.90;2.88;;;21.10;54.40;;;;;;5096131;28;20384;-78
2022/06/13 02:46:10;;;;;;;6.95;3.35;;;21.10;54.40;;;;;;5061504;28;20469;-77
2022/06/13 02:49:01;;;;;;;8.40;4.15;;;21.10;54.20;;;;;;5075730;28;20035;-77
2022/06/13 02:51:52;;;;;;;9.75;3.08;;;21.20;54.30;;;;;;5053733;28;20036;-77
2022/06/13 02:54:22;;;;;;;5.60;3.50;;;21.20;54.10;;;;;;5039474;28;20052;-77
2022/06/13 02:57:31;;;;;;;6.82;3.72;;;21.10;54.40;;;;;;5054225;28;20029;-78
2022/06/13 03:00:31;;;;;;;40.17;6.35;;;21.10;54.80;;;;;;5040918;28;20029;-77
2022/06/13 03:03:03;;;;;;;6.60;3.38;;;20.90;59.40;;;;;;5043281;28;20114;-79
2022/06/13 03:05:53;;;;;;;8.23;3.42;;;20.80;62.30;;;;;;5074365;28;20465;-81
2022/06/13 03:08:24;;;;;;;12.35;3.55;;;20.60;62.30;;;;;;5038174;28;20025;-85
2022/06/13 03:11:02;;;;;;;7.15;3.22;;;20.40;62.80;;;;;;5075069;28;20476;-84
2022/06/13 03:13:41;;;;;;;9.48;3.40;;;20.20;63.20;;;;;;5074729;28;20090;-86
2022/06/13 03:16:49;;;;;;;10.05;3.42;;;20.00;63.60;;;;;;5058570;28;20039;-84
2022/06/13 03:19:27;;;;;;;6.95;3.47;;;19.90;64.90;;;;;;5020281;28;20055;-85
2022/06/13 03:22:22;;;;;;;4.32;3.22;;;19.80;65.80;;;;;;5058027;28;20123;-86
2022/06/13 03:25:20;;;;;;;6.88;2.97;;;19.60;66.20;;;;;;5044470;28;20595;-87
2022/06/13 03:28:08;;;;;;;4.20;3.17;;;19.60;66.50;;;;;;5039938;28;20387;-84
2022/06/13 03:30:39;;;;;;;4.25;3.47;;;19.50;66.90;;;;;;5051158;28;20112;-86
2022/06/13 03:35:57;;;;;;;4.32;3.17;;;19.50;67.10;;;;;;5075891;28;20039;-87
2022/06/13 03:38:30;;;;;;;4.70;3.33;;;19.50;66.90;;;;;;5058245;28;20439;-88
2022/06/13 03:41:00;;;;;;;4.15;3.10;;;19.50;67.10;;;;;;5058142;28;20016;-88
2022/06/13 03:43:46;;;;;;;6.32;2.58;;;19.50;67.10;;;;;;5056713;28;20037;-88
2022/06/13 03:46:18;;;;;;;7.93;3.00;;;19.50;67.20;;;;;;5049866;28;20051;-88
2022/06/13 03:48:59;;;;;;;7.65;3.08;;;19.60;67.30;;;;;;5075856;28;20124;-88
2022/06/13 03:51:45;;;;;;;3.58;3.00;;;19.70;67.60;;;;;;5058442;28;20024;-87
2022/06/13 03:54:17;;;;;;;3.08;2.75;;;19.70;67.60;;;;;;5058506;28;20033;-89
2022/06/13 03:56:46;;;;;;;5.68;3.13;;;19.80;67.50;;;;;;5057714;28;20106;-89
2022/06/13 03:59:20;;;;;;;5.63;3.03;;;19.90;67.70;;;;;;5057715;28;20021;-87
2022/06/13 04:01:52;;;;;;;4.88;3.28;;;20.00;67.80;;;;;;5075304;28;20655;-88
2022/06/13 04:04:24;;;;;;;6.53;2.85;;;20.00;67.60;;;;;;5057056;28;20040;-88
2022/06/13 04:06:53;;;;;;;3.05;2.30;;;20.10;67.40;;;;;;5057348;28;20048;-86
2022/06/13 04:09:32;;;;;;;4.25;2.80;;;20.10;67.10;;;;;;5075644;28;20027;-88
2022/06/13 04:12:07;;;;;;;7.00;3.08;;;20.20;67.10;;;;;;5057660;28;20112;-88
2022/06/13 04:15:17;;;;;;;3.17;2.83;;;20.30;67.20;;;;;;5057592;28;20028;-88
2022/06/13 04:17:51;;;;;;;14.30;5.07;;;20.40;67.00;;;;;;5057646;28;20111;-89
2022/06/13 04:20:41;;;;;;;4.22;2.53;;;20.40;66.90;;;;;;5055570;28;20032;-89
2022/06/13 04:23:21;;;;;;;4.43;3.10;;;20.50;66.70;;;;;;5057005;28;20039;-88
2022/06/13 04:26:02;;;;;;;3.92;3.00;;;20.50;65.00;;;;;;5074470;28;20491;-86
2022/06/13 04:28:50;;;;;;;4.25;2.83;;;20.50;64.90;;;;;;5057331;28;20048;-88
2022/06/13 04:31:18;;;;;;;3.65;3.05;;;20.50;65.00;;;;;;5057194;28;20032;-88
2022/06/13 04:33:58;;;;;;;3.78;2.42;;;20.50;64.60;;;;;;5065544;28;20091;-88
2022/06/13 04:36:26;;;;;;;4.65;2.75;;;20.50;64.50;;;;;;5041102;28;20024;-90
2022/06/13 04:38:55;;;;;;;4.35;2.47;;;20.50;64.40;;;;;;5056286;28;20461;-88
2022/06/13 04:41:27;;;;;;;2.90;2.33;;;20.60;64.60;;;;;;5051193;28;20071;-90
2022/06/13 04:43:57;;;;;;;3.55;2.20;;;20.60;64.20;;;;;;5044946;28;20028;-90
2022/06/13 04:46:26;;;;;;;5.60;2.72;;;20.60;64.50;;;;;;5059792;28;20036;-90
2022/06/13 04:48:54;;;;;;;4.07;2.38;;;20.60;65.00;;;;;;5074868;28;20111;-88
2022/06/13 04:51:27;;;;;;;4.45;2.63;;;20.60;66.20;;;;;;5074745;28;20449;-88
2022/06/13 04:54:06;;;;;;;6.28;2.10;;;20.60;65.70;;;;;;5056737;28;20029;-88
2022/06/13 04:56:34;;;;;;;3.22;2.30;;;20.70;65.90;;;;;;5070753;28;20045;-88
2022/06/13 04:59:01;;;;;;;2.63;2.30;;;20.70;66.10;;;;;;5064361;28;20029;-87
2022/06/13 05:01:28;;;;;;;5.93;2.40;;;20.70;66.00;;;;;;5067792;28;20039;-88
2022/06/13 05:03:57;;;;;;;4.85;2.50;;;20.70;66.30;;;;;;5060005;28;20033;-87
2022/06/13 05:06:43;;;;;;;3.42;2.30;;;20.80;66.30;;;;;;5041793;28;20495;-85
2022/06/13 05:09:16;;;;;;;4.20;2.38;;;20.80;66.00;;;;;;5059057;28;20119;-86
2022/06/13 05:11:52;;;;;;;8.82;2.40;;;20.90;66.30;;;;;;5056688;28;20032;-87
2022/06/13 05:14:27;;;;;;;2.58;2.22;;;20.90;66.20;;;;;;5056540;28;20127;-87
2022/06/13 05:17:17;;;;;;;3.85;2.28;;;20.90;66.10;;;;;;5056594;28;20136;-86
2022/06/13 05:20:21;;;;;;;5.45;2.40;;;20.90;66.10;;;;;;5056042;28;20058;-86
2022/06/13 05:23:17;;;;;;;4.65;2.10;;;21.00;66.00;;;;;;5056429;28;20020;-88
2022/06/13 05:25:48;;;;;;;8.25;2.00;;;21.00;66.40;;;;;;5051467;28;20029;-87
2022/06/13 05:28:18;;;;;;;2.92;1.88;;;21.10;66.00;;;;;;5056100;28;20025;-87
2022/06/13 05:30:49;;;;;;;5.68;2.30;;;21.10;66.30;;;;;;5048068;28;20123;-86
2022/06/13 05:33:18;;;;;;;2.50;2.30;;;21.10;66.30;;;;;;5040706;28;20111;-86
2022/06/13 05:35:45;;;;;;;3.83;2.13;;;21.10;66.30;;;;;;5055307;28;20127;-85
2022/06/13 05:38:17;;;;;;;4.25;2.33;;;21.10;66.40;;;;;;5072980;28;20069;-84
2022/06/13 05:40:44;;;;;;;3.05;2.20;;;21.20;66.30;;;;;;5055647;28;20052;-86
2022/06/13 05:43:11;;;;;;;3.53;2.83;;;21.10;66.10;;;;;;5073374;28;20035;-85
2022/06/13 05:45:39;;;;;;;3.17;2.70;;;21.10;66.00;;;;;;5071983;28;20486;-85
2022/06/13 05:48:11;;;;;;;3.83;2.33;;;21.10;66.10;;;;;;5055709;28;20032;-87
2022/06/13 05:50:36;;;;;;;3.45;2.75;;;21.10;66.10;;;;;;5056057;28;20044;-85
2022/06/13 05:53:02;;;;;;;2.58;2.28;;;21.10;66.00;;;;;;5055664;28;20121;-85
2022/06/13 05:55:28;;;;;;;4.97;2.15;;;21.00;66.00;;;;;;5069301;28;20045;-83
2022/06/13 05:57:54;;;;;;;3.05;2.50;;;21.10;66.40;;;;;;5055267;28;20385;-84
2022/06/13 06:00:24;;;;;;;4.50;3.13;;;21.00;66.30;;;;;;5055464;28;20024;-85
2022/06/13 06:02:50;;;;;;;4.80;2.80;;;21.10;66.60;;;;;;5073230;28;20380;-85
2022/06/13 06:05:16;;;;;;;4.07;2.80;;;21.10;66.60;;;;;;5073841;28;20036;-85
2022/06/13 06:07:43;;;;;;;3.28;2.50;;;21.10;67.10;;;;;;5059769;28;20050;-84
2022/06/13 06:10:17;;;;;;;6.90;2.50;;;21.20;67.80;;;;;;5059004;28;20032;-85
2022/06/13 06:12:43;;;;;;;8.00;2.33;;;21.30;67.40;;;;;;5056333;28;20033;-86
2022/06/13 06:15:09;;;;;;;4.07;2.63;;;21.40;67.70;;;;;;5039253;28;20033;-85
2022/06/13 06:17:35;;;;;;;4.28;2.67;;;21.60;67.40;;;;;;5049616;28;20138;-86
2022/06/13 06:20:01;;;;;;;3.10;2.42;;;21.70;67.10;;;;;;5059335;28;20032;-85
2022/06/13 06:22:27;;;;;;;2.20;2.00;;;21.90;66.60;;;;;;5059050;28;20063;-85
2022/06/13 06:24:53;;;;;;;3.47;2.17;;;22.00;66.50;;;;;;5060524;28;20029;-86
2022/06/13 06:27:19;;;;;;;4.03;2.63;;;22.10;66.50;;;;;;5064062;28;20024;-77
2022/06/13 06:29:45;;;;;;;3.95;2.35;;;22.20;66.00;;;;;;5054680;28;20534;-90
2022/06/13 06:32:10;;;;;;;3.72;2.45;;;22.30;65.60;;;;;;5043360;28;20021;-90
2022/06/13 06:34:36;;;;;;;3.40;2.22;;;22.40;65.60;;;;;;5047186;28;20028;-88
2022/06/13 06:37:02;;;;;;;12.75;2.60;;;22.60;65.10;;;;;;5059744;28;20552;-89
2022/06/13 06:39:28;;;;;;;5.13;2.25;;;22.60;64.10;;;;;;5068111;28;20030;-87
2022/06/13 06:41:55;;;;;;;4.65;1.95;;;22.70;64.20;;;;;;5066800;28;20381;-89
2022/06/13 06:44:22;;;;;;;2.67;2.03;;;22.70;64.50;;;;;;5070824;28;20388;-88
2022/06/13 06:46:48;;;;;;;3.53;1.77;;;22.90;64.40;;;;;;5066237;28;20033;-88
2022/06/13 06:49:14;;;;;;;3.25;1.85;;;23.00;64.20;;;;;;5038620;28;20412;-87
2022/06/13 06:51:44;;;;;;;3.15;2.00;;;23.10;63.40;;;;;;5055300;28;20021;-88
2022/06/13 06:59:53;;;;;;;3.28;1.60;;;23.50;62.70;;;;;;5059052;28;20036;-85
2022/06/13 07:02:23;;;;;;;4.80;1.67;;;23.60;61.80;;;;;;5058137;28;20029;-85
2022/06/13 07:05:00;;;;;;;2.75;1.80;;;23.70;61.40;;;;;;5074712;28;20041;-83
2022/06/13 07:07:26;;;;;;;2.30;1.90;;;23.70;60.30;;;;;;5066401;28;20461;-83
2022/06/13 07:09:52;;;;;;;3.25;1.55;;;23.80;60.80;;;;;;5045697;28;20111;-82
2022/06/13 07:12:18;;;;;;;2.92;1.80;;;23.90;60.90;;;;;;5057805;28;20079;-81
2022/06/13 07:14:44;;;;;;;2.63;1.73;;;24.00;60.70;;;;;;5052908;28;20028;-79
2022/06/13 07:17:12;;;;;;;1.95;1.70;;;24.10;61.00;;;;;;5037660;28;20162;-79
2022/06/13 07:19:38;;;;;;;2.15;1.60;;;24.20;60.70;;;;;;5044178;28;20024;-81
2022/06/13 07:22:06;;;;;;;2.13;1.85;;;24.40;60.30;;;;;;5057635;28;20388;-79
2022/06/13 07:24:33;;;;;;;3.08;1.35;;;24.50;58.00;;;;;;5057380;28;20025;-78
2022/06/13 07:26:59;;;;;;;1.60;1.50;;;24.60;58.40;;;;;;5075003;28;20028;-78
2022/06/13 07:29:25;;;;;;;4.80;1.55;;;24.80;58.00;;;;;;5060838;28;20033;-77
2022/06/13 07:31:58;;;;;;;3.10;1.50;;;24.80;57.80;;;;;;5065425;28;20062;-79
2022/06/13 07:34:28;;;;;;;2.45;1.90;;;24.90;56.70;;;;;;5061045;28;20036;-78
2022/06/13 07:36:57;;;;;;;3.15;1.50;;;24.90;56.90;;;;;;5075525;28;20025;-79
2022/06/13 07:39:23;;;;;;;2.22;1.80;;;25.00;57.30;;;;;;5057082;28;20029;-79
2022/06/13 07:41:50;;;;;;;2.00;1.75;;;25.00;55.90;;;;;;5056971;28;20029;-78
2022/06/13 07:44:21;;;;;;;3.90;1.85;;;25.00;56.00;;;;;;5051643;28;20031;-77
2022/06/13 07:46:48;;;;;;;3.17;1.40;;;25.00;56.70;;;;;;5068992;28;20535;-79
2022/06/13 07:49:14;;;;;;;2.40;1.58;;;25.00;57.40;;;;;;5037208;28;20051;-78
2022/06/13 07:51:41;;;;;;;2.72;1.73;;;25.10;57.80;;;;;;5052954;28;20111;-78
2022/06/13 07:54:07;;;;;;;4.43;2.08;;;25.20;57.20;;;;;;5055105;28;20174;-78
2022/06/13 07:56:34;;;;;;;2.25;1.92;;;25.30;57.00;;;;;;5052529;28;20438;-78
2022/06/13 07:59:00;;;;;;;2.20;1.77;;;25.30;55.30;;;;;;5067770;28;20462;-78
2022/06/13 08:01:27;;;;;;;2.55;1.92;;;25.30;56.30;;;;;;5074668;28;20033;-78
2022/06/13 08:03:54;;;;;;;7.65;1.50;;;25.40;56.50;;;;;;5065908;28;20391;-78
2022/06/13 08:06:21;;;;;;;3.28;1.92;;;25.40;55.70;;;;;;5076654;28;20507;-78
2022/06/13 08:08:47;;;;;;;2.75;2.05;;;25.40;55.40;;;;;;5090893;28;20024;-78
2022/06/13 08:11:16;;;;;;;1.83;1.63;;;25.40;56.00;;;;;;5075793;28;20069;-79
2022/06/13 08:13:42;;;;;;;3.05;1.85;;;25.30;55.60;;;;;;5076526;28;20047;-77
2022/06/13 08:16:10;;;;;;;2.03;1.83;;;25.30;55.00;;;;;;5073224;28;20029;-78
2022/06/13 08:18:37;;;;;;;2.40;1.75;;;25.20;54.80;;;;;;5053683;28;20057;-77
2022/06/13 08:21:03;;;;;;;1.85;1.30;;;25.10;55.40;;;;;;5071024;28;20421;-78
2022/06/13 08:23:29;;;;;;;5.10;1.60;;;25.00;55.80;;;;;;5074512;28;20043;-78
2022/06/13 08:25:56;;;;;;;1.73;1.48;;;25.00;55.70;;;;;;5077585;28;20028;-78
2022/06/13 08:28:22;;;;;;;4.65;1.70;;;25.00;56.10;;;;;;5075904;28;20038;-78
2022/06/13 08:30:54;;;;;;;5.57;1.63;;;24.90;55.60;;;;;;5094083;28;20036;-78
2022/06/13 08:33:21;;;;;;;5.55;1.83;;;25.00;56.20;;;;;;5067282;28;20041;-77
2022/06/13 08:35:47;;;;;;;2.33;2.10;;;25.10;57.00;;;;;;5060145;28;20107;-77
2022/06/13 08:38:14;;;;;;;3.25;2.17;;;25.20;57.00;;;;;;5066209;28;20078;-78
2022/06/13 08:41:03;;;;;;;1.85;1.65;;;25.30;55.40;;;;;;5046630;28;20028;-77
2022/06/13 08:43:57;;;;;;;1.88;1.77;;;25.30;54.60;;;;;;5055314;28;20103;-77
2022/06/13 08:46:34;;;;;;;3.53;2.50;;;25.40;55.70;;;;;;5056026;28;20059;-77
2022/06/13 08:49:25;;;;;;;2.85;2.17;;;25.40;55.10;;;;;;5072729;28;20082;-77
2022/06/13 08:52:35;;;;;;;2.45;2.05;;;25.50;54.50;;;;;;5073629;28;20024;-77
2022/06/13 08:55:10;;;;;;;1.90;1.80;;;25.50;54.80;;;;;;5071202;28;20049;-75
2022/06/13 08:57:42;;;;;;;3.10;2.28;;;25.70;54.80;;;;;;5081209;28;20020;-76
2022/06/13 09:00:17;;;;;;;5.20;1.90;;;25.70;54.50;;;;;;5057278;28;20140;-76
2022/06/13 09:02:52;;;;;;;4.15;2.30;;;25.80;54.70;;;;;;5065963;28;20032;-76
2022/06/13 09:05:22;;;;;;;5.85;2.35;;;25.80;53.90;;;;;;5045711;28;20468;-76
2022/06/13 09:08:18;;;;;;;2.60;1.80;;;25.90;54.10;;;;;;5093644;28;20020;-77
2022/06/13 09:10:53;;;;;;;3.45;1.80;;;25.90;54.70;;;;;;5060994;28;20480;-76
2022/06/13 09:13:41;;;;;;;2.92;2.05;;;25.90;54.50;;;;;;5035741;28;20029;-76
2022/06/13 09:16:11;;;;;;;2.97;1.65;;;26.00;54.20;;;;;;5083896;28;20028;-76
2022/06/13 09:18:56;;;;;;;5.97;2.00;;;26.00;53.30;;;;;;5075657;28;20028;-75
2022/06/13 09:21:29;;;;;;;2.50;1.92;;;25.90;53.10;;;;;;5063804;28;20074;-76
2022/06/13 09:24:23;;;;;;;2.30;1.80;;;25.90;53.40;;;;;;5073516;28;20029;-76
2022/06/13 09:27:08;;;;;;;2.25;1.65;;;25.90;52.70;;;;;;5087390;28;20027;-76
2022/06/13 09:29:46;;;;;;;1.58;1.40;;;26.00;54.50;;;;;;5062660;28;20064;-76
2022/06/13 09:32:18;;;;;;;2.78;1.60;;;26.10;52.80;;;;;;5061240;28;20029;-76
2022/06/13 09:34:48;;;;;;;2.08;1.33;;;26.20;53.60;;;;;;5055702;28;20079;-76
2022/06/13 09:37:27;;;;;;;3.03;2.13;;;26.30;53.40;;;;;;5035374;28;20060;-76
2022/06/13 09:39:54;;;;;;;2.45;1.60;;;26.40;53.60;;;;;;5043535;28;20029;-76
2022/06/13 09:42:35;;;;;;;1.88;1.55;;;26.50;54.20;;;;;;5072792;28;20025;-75
2022/06/13 09:45:25;;;;;;;2.15;1.50;;;26.70;52.50;;;;;;5051849;28;20400;-77
2022/06/13 09:48:12;;;;;;;2.10;1.73;;;26.90;51.80;;;;;;5076646;28;20020;-77
2022/06/13 09:51:13;;;;;;;2.75;1.88;;;27.10;53.50;;;;;;5055172;28;20027;-77
2022/06/13 09:53:58;;;;;;;2.67;1.73;;;27.30;51.30;;;;;;5057404;28;20031;-76
2022/06/13 09:57:09;;;;;;;2.42;1.67;;;27.30;50.20;;;;;;5033020;28;20128;-76
2022/06/13 10:00:17;;;;;;;2.78;1.77;;;27.30;50.20;;;;;;5037182;28;20031;-76
2022/06/13 10:03:18;;;;;;;2.00;1.52;;;27.40;50.80;;;;;;5029249;28;20037;-77
2022/06/13 10:06:25;;;;;;;2.13;1.48;;;27.60;51.10;;;;;;5052509;28;20029;-76
2022/06/13 10:09:09;;;;;;;2.03;1.50;;;27.70;50.20;;;;;;5035021;28;20036;-76
2022/06/13 10:11:56;;;;;;;1.73;1.60;;;27.70;49.70;;;;;;5034511;28;20492;-77
2022/06/13 10:14:22;;;;;;;7.10;2.08;;;27.70;49.70;;;;;;5024773;28;20136;-76
2022/06/13 10:17:26;;;;;;;2.55;1.50;;;27.70;50.30;;;;;;5042326;28;20437;-77
2022/06/13 10:20:13;;;;;;;2.92;1.55;;;27.70;49.60;;;;;;5035171;28;20127;-76
2022/06/13 10:23:42;;;;;;;2.03;1.27;;;27.70;49.50;;;;;;5024334;28;20037;-76
2022/06/13 10:26:40;;;;;;;2.55;1.33;;;27.70;50.00;;;;;;5038494;28;20053;-76
2022/06/13 10:29:31;;;;;;;1.38;1.27;;;27.70;50.20;;;;;;5008051;28;20421;-77
2022/06/13 10:32:00;;;;;;;1.75;1.63;;;27.80;50.10;;;;;;5023998;28;20483;-76
2022/06/13 10:34:43;;;;;;;8.75;1.40;;;27.90;49.10;;;;;;5034347;28;20025;-76
2022/06/13 10:37:28;;;;;;;;;;;28.00;49.00;;;;;;5021828;28;20029;-77
2022/06/13 10:39:58;;;;;;;4.68;1.52;;;28.10;50.20;;;;;;5024226;28;19909;-77
2022/06/13 10:42:28;;;;;;;3.30;1.60;;;28.20;49.60;;;;;;5041206;28;20044;-76
2022/06/13 10:44:54;;;;;;;2.90;1.35;;;28.30;49.40;;;;;;5029239;28;20029;-77
2022/06/13 10:47:34;;;;;;;4.15;1.35;;;28.40;48.20;;;;;;5035841;28;20102;-77
2022/06/13 10:50:07;;;;;;;1.23;1.10;;;28.60;48.00;;;;;;5044798;28;20036;-77
2022/06/13 10:52:39;;;;;;;2.65;1.10;;;28.60;46.70;;;;;;5019027;28;20025;-78
2022/06/13 10:55:11;;;;;;;3.55;1.90;;;28.70;47.20;;;;;;5059545;28;20060;-78
2022/06/13 10:57:51;;;;;;;7.70;2.47;;;28.70;47.00;;;;;;5048063;28;20022;-77
2022/06/13 11:00:19;;;;;;;2.30;1.42;;;28.80;47.20;;;;;;5018463;28;20473;-77
2022/06/13 11:02:45;;;;;;;1.40;1.30;;;28.80;47.50;;;;;;5037130;28;20032;-76
2022/06/13 11:05:25;;;;;;;3.67;2.08;;;28.80;47.60;;;;;;5034313;28;20064;-77
2022/06/13 11:08:00;;;;;;;2.83;1.80;;;28.70;47.90;;;;;;5028893;28;20033;-76
2022/06/13 11:10:42;;;;;;;5.28;2.83;;;28.40;53.20;;;;;;5036504;28;20025;-77
2022/06/13 11:13:22;;;;;;;28.75;6.40;;;28.00;51.80;;;;;;5035419;28;20057;-77
2022/06/13 11:24:45;;;;;;;3.97;2.00;;;26.80;54.70;;;;;;5054892;28;20103;-79
2022/06/13 11:27:40;;;;;;;8.13;2.70;;;26.80;53.80;;;;;;5055318;28;20384;-80
2022/06/13 11:30:28;;;;;;;3.05;1.48;;;26.70;54.60;;;;;;5024424;28;20119;-80
2022/06/13 11:33:10;;;;;;;2.03;1.60;;;26.80;54.00;;;;;;5032831;28;20104;-79
2022/06/13 11:35:56;;;;;;;2.67;1.90;;;26.80;54.10;;;;;;5026186;28;20461;-80
2022/06/13 11:38:27;;;;;;;3.13;1.85;;;26.90;53.50;;;;;;5025913;28;20534;-80
2022/06/13 11:41:40;;;;;;;5.88;1.95;;;26.90;53.00;;;;;;5020148;28;20053;-81
2022/06/13 11:44:10;;;;;;;2.20;2.00;;;27.00;52.90;;;;;;5000985;28;20404;-80
2022/06/13 11:47:00;;;;;;;2.85;2.00;;;27.00;53.40;;;;;;5054602;28;20053;-80
2022/06/13 11:49:41;;;;;;;6.82;1.65;;;27.00;53.60;;;;;;5038366;28;20040;-77
2022/06/13 11:53:35;;;;;;;1.42;1.27;;;27.10;53.80;;;;;;5052414;28;20040;-85
2022/06/13 11:55:01;;;;;;;3.30;1.75;;;27.20;54.20;;;;;;5055023;28;20064;-84
2022/06/13 11:57:38;;;;;;;4.57;2.20;;;27.10;52.90;;;;;;5059981;28;20116;-84
2022/06/13 12:00:12;;;;;;;2.10;1.25;;;27.00;52.00;;;;;;5056968;28;20111;-85
2022/06/13 12:02:57;;;;;;;3.63;1.63;;;26.90;51.70;;;;;;5062507;28;20116;-83
2022/06/13 12:05:41;;;;;;;2.03;1.77;;;26.70;50.30;;;;;;5042606;28;20032;-82
2022/06/13 12:08:19;;;;;;;2.35;1.60;;;26.50;50.50;;;;;;5066668;28;20020;-79
2022/06/13 12:11:20;;;;;;;1.80;1.50;;;26.40;51.80;;;;;;5094407;28;20107;-80
2022/06/13 12:13:59;;;;;;;3.65;1.58;;;26.30;51.00;;;;;;5094319;28;20032;-78
2022/06/13 12:16:41;;;;;;;1.98;1.25;;;26.20;51.00;;;;;;5076349;28;20424;-78
2022/06/13 12:19:14;;;;;;;3.50;1.40;;;26.10;51.50;;;;;;5075273;28;20091;-76
2022/06/13 12:21:48;;;;;;;1.60;1.27;;;26.00;51.10;;;;;;5075398;28;20456;-76
2022/06/13 12:24:26;;;;;;;;;;;26.00;51.80;;;;;;5047743;28;20039;-76
2022/06/13 12:27:16;;;;;;;4.93;1.63;;;26.00;52.00;;;;;;5062649;28;20427;-76
2022/06/13 12:29:45;;;;;;;5.18;2.65;;;26.00;52.30;;;;;;5054415;28;20029;-76
2022/06/13 12:32:16;;;;;;;5.18;1.70;;;26.00;52.20;;;;;;5074086;28;20452;-75
2022/06/13 12:35:19;;;;;;;2.97;1.70;;;26.00;53.10;;;;;;5073766;28;20025;-76
2022/06/13 12:38:07;;;;;;;2.45;1.27;;;26.10;52.50;;;;;;5055864;28;20028;-75
2022/06/13 12:41:18;;;;;;;2.53;1.30;;;26.20;51.30;;;;;;5044708;28;20082;-75
2022/06/13 12:44:28;;;;;;;1.42;1.17;;;26.30;52.00;;;;;;5069270;28;20047;-76
2022/06/13 12:47:14;;;;;;;3.00;1.90;;;26.40;51.50;;;;;;5065599;28;20029;-75
2022/06/13 12:49:51;;;;;;;2.60;1.10;;;26.60;51.00;;;;;;5071132;28;20101;-75
2022/06/13 12:52:25;;;;;;;1.83;1.10;;;26.80;50.80;;;;;;5093804;28;20020;-75
2022/06/13 12:55:32;;;;;;;3.22;1.35;;;27.00;47.90;;;;;;5069448;28;20059;-76
2022/06/13 12:58:12;;;;;;;1.63;1.20;;;27.30;47.30;;;;;;5078559;28;20039;-76
2022/06/13 13:00:49;;;;;;;2.22;1.27;;;27.50;46.30;;;;;;5050317;28;20036;-75
2022/06/13 13:03:19;;;;;;;3.80;1.25;;;27.70;44.50;;;;;;5069262;28;20115;-75
2022/06/13 13:06:02;;;;;;;2.50;1.33;;;27.80;44.70;;;;;;5044586;28;20138;-76
2022/06/13 13:08:45;;;;;;;2.60;1.38;;;27.90;43.10;;;;;;5076979;28;20453;-76
2022/06/13 13:11:21;;;;;;;1.70;1.27;;;28.10;42.70;;;;;;5065906;28;20031;-76
2022/06/13 13:13:58;;;;;;;1.95;1.17;;;28.10;41.60;;;;;;5068925;28;20068;-75
2022/06/13 13:16:36;;;;;;;2.80;1.60;;;28.20;38.10;;;;;;5051875;28;20040;-76
2022/06/13 13:19:05;;;;;;;1.40;1.00;;;28.20;37.80;;;;;;5044900;28;20035;-76
2022/06/13 13:21:41;;;;;;;1.90;1.15;;;28.30;37.00;;;;;;5053055;28;20029;-76
2022/06/13 13:24:37;;;;;;;1.88;1.00;;;28.50;36.40;;;;;;5053436;28;20120;-76
2022/06/13 13:27:24;;;;;;;5.93;1.23;;;28.70;36.50;;;;;;5053115;28;20033;-77
2022/06/13 13:30:20;;;;;;;2.63;1.20;;;29.10;37.70;;;;;;5035596;28;20468;-79
2022/06/13 13:32:59;;;;;;;2.17;1.27;;;29.60;36.40;;;;;;5057408;28;20357;-76
2022/06/13 13:35:51;;;;;;;3.28;1.65;;;30.10;35.10;;;;;;5035804;28;20477;-78
2022/06/13 13:38:26;;;;;;;4.07;1.85;;;30.50;33.90;;;;;;5062116;28;20060;-76
2022/06/13 13:41:04;;;;;;;2.42;1.65;;;31.10;33.00;;;;;;5060872;28;20028;-77
2022/06/13 13:44:04;;;;;;;2.60;1.50;;;31.60;33.50;;;;;;5060605;28;20028;-84
2022/06/13 13:46:53;;;;;;;2.85;1.40;;;32.20;33.50;;;;;;5056112;28;20056;-78
2022/06/13 13:49:32;;;;;;;3.25;1.50;;;32.70;32.20;;;;;;5053971;28;20388;-78
2022/06/13 13:52:03;;;;;;;6.07;1.15;;;32.90;29.70;;;;;;5082587;28;20020;-78
2022/06/13 13:54:40;;;;;;;5.32;1.30;;;33.10;30.20;;;;;;5058057;28;20127;-76
2022/06/13 13:57:15;;;;;;;3.28;1.30;;;33.40;28.50;;;;;;5062867;28;20033;-76
2022/06/13 13:59:46;;;;;;;16.55;3.22;;;33.70;28.40;;;;;;5044477;28;20025;-78